San Acacia, New Mexico
Current Conditions -  °F | °C
As of 9:35 AM on Friday 19 Dec 2014 (Local Time) from KONM Reporting Station
Clear Clear  
Wind Chill: 32°   Ceiling: Unl
Heat Index: 36°   Visibility: 10mi
Dew Point: 31°   Wind: 5mph
Humidity: 82%   Direction: 40°NE
Pressure: 30.26"   Gusts: NA
Location:  34.26°N, 106.9°W
Report Text: KONM 191635Z AUTO 04004KT 10SM CLR 02/M01 A3026 RMK AO2 T00201007
Loading
Personal Weather Stations






























Interactive Weather Map New forecast layout! Learn more

10-Day Weather Forecast

Advertisements
Track Severe Weather on mobile